sensor_id;sensor_type;location;lat;lon;timestamp;P1;durP1;ratioP1;P2;durP2;ratioP2
75152;SDS011;63734;45.218;36.708;2023-01-05T00:01:45;3.40;;;2.50;;
75152;SDS011;63734;45.218;36.708;2023-01-05T00:04:11;3.35;;;2.72;;
75152;SDS011;63734;45.218;36.708;2023-01-05T00:06:38;4.00;;;3.03;;
75152;SDS011;63734;45.218;36.708;2023-01-05T00:09:05;3.53;;;2.80;;
75152;SDS011;63734;45.218;36.708;2023-01-05T00:11:36;5.32;;;3.05;;
75152;SDS011;63734;45.218;36.708;2023-01-05T00:14:21;3.67;;;2.60;;
75152;SDS011;63734;45.218;36.708;2023-01-05T00:17:12;3.08;;;2.58;;
75152;SDS011;63734;45.218;36.708;2023-01-05T00:20:02;4.03;;;2.42;;
75152;SDS011;63734;45.218;36.708;2023-01-05T00:22:49;2.75;;;2.17;;
75152;SDS011;63734;45.218;36.708;2023-01-05T00:25:18;4.20;;;3.00;;
75152;SDS011;63734;45.218;36.708;2023-01-05T00:27:49;5.68;;;2.63;;
75152;SDS011;63734;45.218;36.708;2023-01-05T00:30:20;10.65;;;2.45;;
75152;SDS011;63734;45.218;36.708;2023-01-05T00:32:51;3.15;;;2.20;;
75152;SDS011;63734;45.218;36.708;2023-01-05T00:35:18;4.53;;;2.25;;
75152;SDS011;63734;45.218;36.708;2023-01-05T00:37:45;3.90;;;2.40;;
75152;SDS011;63734;45.218;36.708;2023-01-05T00:40:12;3.83;;;2.60;;
75152;SDS011;63734;45.218;36.708;2023-01-05T00:42:40;3.67;;;2.50;;
75152;SDS011;63734;45.218;36.708;2023-01-05T00:45:07;4.20;;;2.55;;
75152;SDS011;63734;45.218;36.708;2023-01-05T00:47:35;4.22;;;2.47;;
75152;SDS011;63734;45.218;36.708;2023-01-05T00:50:01;2.58;;;2.10;;
75152;SDS011;63734;45.218;36.708;2023-01-05T00:52:28;3.47;;;2.10;;
75152;SDS011;63734;45.218;36.708;2023-01-05T00:54:54;3.70;;;2.45;;
75152;SDS011;63734;45.218;36.708;2023-01-05T00:57:20;2.92;;;2.20;;
75152;SDS011;63734;45.218;36.708;2023-01-05T00:59:46;4.53;;;2.65;;
75152;SDS011;63734;45.218;36.708;2023-01-05T01:02:13;3.42;;;2.22;;
75152;SDS011;63734;45.218;36.708;2023-01-05T01:04:39;3.13;;;2.60;;
75152;SDS011;63734;45.218;36.708;2023-01-05T01:07:05;3.75;;;2.55;;
75152;SDS011;63734;45.218;36.708;2023-01-05T01:09:31;3.10;;;2.33;;
75152;SDS011;63734;45.218;36.708;2023-01-05T01:11:58;4.55;;;2.53;;
75152;SDS011;63734;45.218;36.708;2023-01-05T01:14:24;2.10;;;1.88;;
75152;SDS011;63734;45.218;36.708;2023-01-05T01:16:51;3.78;;;2.30;;
75152;SDS011;63734;45.218;36.708;2023-01-05T01:19:18;4.05;;;2.30;;
75152;SDS011;63734;45.218;36.708;2023-01-05T01:21:46;3.60;;;2.50;;
75152;SDS011;63734;45.218;36.708;2023-01-05T01:24:16;2.70;;;2.25;;
75152;SDS011;63734;45.218;36.708;2023-01-05T01:26:45;3.33;;;2.28;;
75152;SDS011;63734;45.218;36.708;2023-01-05T01:29:11;2.50;;;2.30;;
75152;SDS011;63734;45.218;36.708;2023-01-05T01:31:38;3.88;;;2.90;;
75152;SDS011;63734;45.218;36.708;2023-01-05T01:34:04;4.60;;;2.80;;
75152;SDS011;63734;45.218;36.708;2023-01-05T01:36:30;2.90;;;2.60;;
75152;SDS011;63734;45.218;36.708;2023-01-05T01:38:56;4.05;;;3.10;;
75152;SDS011;63734;45.218;36.708;2023-01-05T01:41:23;3.60;;;2.40;;
75152;SDS011;63734;45.218;36.708;2023-01-05T01:43:55;4.70;;;2.33;;
75152;SDS011;63734;45.218;36.708;2023-01-05T01:46:24;8.25;;;2.90;;
75152;SDS011;63734;45.218;36.708;2023-01-05T01:51:24;5.28;;;2.88;;
75152;SDS011;63734;45.218;36.708;2023-01-05T01:53:56;5.53;;;3.25;;
75152;SDS011;63734;45.218;36.708;2023-01-05T01:56:23;7.47;;;3.50;;
75152;SDS011;63734;45.218;36.708;2023-01-05T01:58:53;4.68;;;3.28;;
75152;SDS011;63734;45.218;36.708;2023-01-05T02:01:20;5.90;;;3.35;;
75152;SDS011;63734;45.218;36.708;2023-01-05T02:03:46;4.00;;;2.92;;
75152;SDS011;63734;45.218;36.708;2023-01-05T02:06:12;6.18;;;3.53;;
75152;SDS011;63734;45.218;36.708;2023-01-05T02:08:38;5.85;;;3.63;;
75152;SDS011;63734;45.218;36.708;2023-01-05T02:11:28;6.18;;;3.75;;
75152;SDS011;63734;45.218;36.708;2023-01-05T02:34:06;9.02;;;4.47;;
75152;SDS011;63734;45.218;36.708;2023-01-05T02:44:18;7.45;;;3.80;;
75152;SDS011;63734;45.218;36.708;2023-01-05T02:47:02;6.05;;;3.50;;
75152;SDS011;63734;45.218;36.708;2023-01-05T02:49:31;6.75;;;4.13;;
75152;SDS011;63734;45.218;36.708;2023-01-05T02:52:03;6.50;;;3.90;;
75152;SDS011;63734;45.218;36.708;2023-01-05T02:54:44;7.65;;;4.07;;
75152;SDS011;63734;45.218;36.708;2023-01-05T02:57:17;5.53;;;4.15;;
75152;SDS011;63734;45.218;36.708;2023-01-05T03:00:08;5.47;;;3.20;;
75152;SDS011;63734;45.218;36.708;2023-01-05T03:02:36;7.65;;;3.67;;
75152;SDS011;63734;45.218;36.708;2023-01-05T03:05:11;5.45;;;3.47;;
75152;SDS011;63734;45.218;36.708;2023-01-05T03:07:40;7.20;;;4.13;;
75152;SDS011;63734;45.218;36.708;2023-01-05T03:10:11;7.50;;;3.58;;
75152;SDS011;63734;45.218;36.708;2023-01-05T03:12:58;7.50;;;3.80;;
75152;SDS011;63734;45.218;36.708;2023-01-05T03:15:46;6.15;;;3.70;;
75152;SDS011;63734;45.218;36.708;2023-01-05T03:18:15;6.00;;;3.75;;
75152;SDS011;63734;45.218;36.708;2023-01-05T03:20:48;7.68;;;3.47;;
75152;SDS011;63734;45.218;36.708;2023-01-05T03:23:17;6.60;;;3.50;;
75152;SDS011;63734;45.218;36.708;2023-01-05T03:26:03;6.90;;;4.22;;
75152;SDS011;63734;45.218;36.708;2023-01-05T03:29:00;7.53;;;4.30;;
75152;SDS011;63734;45.218;36.708;2023-01-05T03:31:50;7.30;;;3.80;;
75152;SDS011;63734;45.218;36.708;2023-01-05T03:37:33;7.30;;;4.07;;
75152;SDS011;63734;45.218;36.708;2023-01-05T03:40:04;7.50;;;4.07;;
75152;SDS011;63734;45.218;36.708;2023-01-05T03:42:35;5.90;;;3.85;;
75152;SDS011;63734;45.218;36.708;2023-01-05T03:45:02;7.80;;;4.18;;
75152;SDS011;63734;45.218;36.708;2023-01-05T03:47:30;8.82;;;5.13;;
75152;SDS011;63734;45.218;36.708;2023-01-05T03:49:57;11.25;;;4.88;;
75152;SDS011;63734;45.218;36.708;2023-01-05T03:52:23;10.13;;;5.03;;
75152;SDS011;63734;45.218;36.708;2023-01-05T03:54:49;7.55;;;4.43;;
75152;SDS011;63734;45.218;36.708;2023-01-05T03:57:15;7.57;;;3.80;;
75152;SDS011;63734;45.218;36.708;2023-01-05T03:59:42;6.65;;;4.25;;
75152;SDS011;63734;45.218;36.708;2023-01-05T04:02:08;8.23;;;4.35;;
75152;SDS011;63734;45.218;36.708;2023-01-05T04:04:35;10.52;;;5.10;;
75152;SDS011;63734;45.218;36.708;2023-01-05T04:07:04;8.00;;;4.28;;
75152;SDS011;63734;45.218;36.708;2023-01-05T04:09:33;7.55;;;4.35;;
75152;SDS011;63734;45.218;36.708;2023-01-05T04:11:59;5.57;;;4.30;;
75152;SDS011;63734;45.218;36.708;2023-01-05T04:14:30;10.60;;;4.30;;
75152;SDS011;63734;45.218;36.708;2023-01-05T04:16:57;9.07;;;5.40;;
75152;SDS011;63734;45.218;36.708;2023-01-05T04:19:23;8.13;;;5.00;;
75152;SDS011;63734;45.218;36.708;2023-01-05T04:21:51;6.72;;;4.32;;
75152;SDS011;63734;45.218;36.708;2023-01-05T04:24:19;8.10;;;5.00;;
75152;SDS011;63734;45.218;36.708;2023-01-05T04:26:46;9.25;;;4.50;;
75152;SDS011;63734;45.218;36.708;2023-01-05T04:29:12;7.18;;;4.45;;
75152;SDS011;63734;45.218;36.708;2023-01-05T04:31:40;6.22;;;4.38;;
75152;SDS011;63734;45.218;36.708;2023-01-05T04:34:06;7.22;;;4.22;;
75152;SDS011;63734;45.218;36.708;2023-01-05T04:36:32;8.18;;;5.10;;
75152;SDS011;63734;45.218;36.708;2023-01-05T04:38:59;9.52;;;5.60;;
75152;SDS011;63734;45.218;36.708;2023-01-05T04:41:27;8.85;;;5.28;;
75152;SDS011;63734;45.218;36.708;2023-01-05T04:43:54;7.40;;;4.35;;
75152;SDS011;63734;45.218;36.708;2023-01-05T04:46:21;9.48;;;5.25;;
75152;SDS011;63734;45.218;36.708;2023-01-05T04:48:49;7.80;;;4.60;;
75152;SDS011;63734;45.218;36.708;2023-01-05T04:51:18;6.70;;;3.95;;
75152;SDS011;63734;45.218;36.708;2023-01-05T04:53:44;5.28;;;3.13;;
75152;SDS011;63734;45.218;36.708;2023-01-05T04:56:14;6.45;;;3.80;;
75152;SDS011;63734;45.218;36.708;2023-01-05T04:58:42;8.35;;;3.90;;
75152;SDS011;63734;45.218;36.708;2023-01-05T05:01:09;9.10;;;3.47;;
75152;SDS011;63734;45.218;36.708;2023-01-05T05:03:36;6.00;;;3.58;;
75152;SDS011;63734;45.218;36.708;2023-01-05T05:06:06;7.80;;;4.03;;
75152;SDS011;63734;45.218;36.708;2023-01-05T05:08:32;7.55;;;3.83;;
75152;SDS011;63734;45.218;36.708;2023-01-05T05:11:00;7.32;;;3.85;;
75152;SDS011;63734;45.218;36.708;2023-01-05T05:13:28;8.23;;;4.18;;
75152;SDS011;63734;45.218;36.708;2023-01-05T05:15:57;5.25;;;3.47;;
75152;SDS011;63734;45.218;36.708;2023-01-05T05:18:22;6.18;;;3.67;;
75152;SDS011;63734;45.218;36.708;2023-01-05T05:20:51;5.70;;;3.63;;
75152;SDS011;63734;45.218;36.708;2023-01-05T05:23:21;5.53;;;3.53;;
75152;SDS011;63734;45.218;36.708;2023-01-05T05:25:49;5.90;;;3.55;;
75152;SDS011;63734;45.218;36.708;2023-01-05T05:28:17;8.40;;;4.03;;
75152;SDS011;63734;45.218;36.708;2023-01-05T05:30:44;5.45;;;3.85;;
75152;SDS011;63734;45.218;36.708;2023-01-05T05:33:10;7.15;;;3.92;;
75152;SDS011;63734;45.218;36.708;2023-01-05T05:35:36;8.05;;;3.78;;
75152;SDS011;63734;45.218;36.708;2023-01-05T05:38:02;5.82;;;3.42;;
75152;SDS011;63734;45.218;36.708;2023-01-05T05:40:28;6.25;;;3.63;;
75152;SDS011;63734;45.218;36.708;2023-01-05T05:42:53;7.28;;;3.90;;
75152;SDS011;63734;45.218;36.708;2023-01-05T05:45:19;9.40;;;3.72;;
75152;SDS011;63734;45.218;36.708;2023-01-05T05:47:45;6.68;;;3.38;;
75152;SDS011;63734;45.218;36.708;2023-01-05T05:50:11;6.40;;;3.42;;
75152;SDS011;63734;45.218;36.708;2023-01-05T05:52:37;6.10;;;4.00;;
75152;SDS011;63734;45.218;36.708;2023-01-05T05:55:03;6.85;;;4.22;;
75152;SDS011;63734;45.218;36.708;2023-01-05T05:57:30;8.90;;;3.90;;
75152;SDS011;63734;45.218;36.708;2023-01-05T05:59:56;6.47;;;4.05;;
75152;SDS011;63734;45.218;36.708;2023-01-05T06:02:22;9.38;;;4.10;;
75152;SDS011;63734;45.218;36.708;2023-01-05T06:04:48;7.25;;;3.95;;
75152;SDS011;63734;45.218;36.708;2023-01-05T06:07:14;7.45;;;3.78;;
75152;SDS011;63734;45.218;36.708;2023-01-05T06:09:40;5.75;;;3.47;;
75152;SDS011;63734;45.218;36.708;2023-01-05T06:12:06;7.70;;;3.40;;
75152;SDS011;63734;45.218;36.708;2023-01-05T06:14:32;6.40;;;3.30;;
75152;SDS011;63734;45.218;36.708;2023-01-05T06:16:58;5.50;;;4.00;;
75152;SDS011;63734;45.218;36.708;2023-01-05T06:19:24;5.10;;;3.47;;
75152;SDS011;63734;45.218;36.708;2023-01-05T06:21:50;7.65;;;3.53;;
75152;SDS011;63734;45.218;36.708;2023-01-05T06:24:16;6.15;;;3.38;;
75152;SDS011;63734;45.218;36.708;2023-01-05T06:26:42;5.75;;;3.47;;
75152;SDS011;63734;45.218;36.708;2023-01-05T06:29:09;6.90;;;3.47;;
75152;SDS011;63734;45.218;36.708;2023-01-05T06:31:36;6.40;;;3.97;;
75152;SDS011;63734;45.218;36.708;2023-01-05T06:34:02;7.45;;;3.80;;
75152;SDS011;63734;45.218;36.708;2023-01-05T06:36:28;8.55;;;3.63;;
75152;SDS011;63734;45.218;36.708;2023-01-05T06:38:53;5.70;;;3.45;;
75152;SDS011;63734;45.218;36.708;2023-01-05T06:41:19;9.27;;;3.25;;
75152;SDS011;63734;45.218;36.708;2023-01-05T06:43:45;8.77;;;4.18;;
75152;SDS011;63734;45.218;36.708;2023-01-05T06:46:11;8.10;;;4.00;;
75152;SDS011;63734;45.218;36.708;2023-01-05T06:48:37;9.30;;;4.43;;
75152;SDS011;63734;45.218;36.708;2023-01-05T06:51:03;12.27;;;4.90;;
75152;SDS011;63734;45.218;36.708;2023-01-05T06:53:29;7.75;;;4.55;;
75152;SDS011;63734;45.218;36.708;2023-01-05T06:55:55;6.70;;;4.47;;
75152;SDS011;63734;45.218;36.708;2023-01-05T06:58:21;8.25;;;4.68;;
75152;SDS011;63734;45.218;36.708;2023-01-05T07:00:47;6.95;;;4.50;;
75152;SDS011;63734;45.218;36.708;2023-01-05T07:03:13;9.52;;;4.43;;
75152;SDS011;63734;45.218;36.708;2023-01-05T07:05:39;9.48;;;4.40;;
75152;SDS011;63734;45.218;36.708;2023-01-05T07:08:05;6.72;;;4.03;;
75152;SDS011;63734;45.218;36.708;2023-01-05T07:10:32;7.72;;;4.00;;
75152;SDS011;63734;45.218;36.708;2023-01-05T07:12:57;6.00;;;4.07;;
75152;SDS011;63734;45.218;36.708;2023-01-05T07:15:23;6.45;;;3.67;;
75152;SDS011;63734;45.218;36.708;2023-01-05T07:17:49;6.70;;;4.15;;
75152;SDS011;63734;45.218;36.708;2023-01-05T07:20:15;9.45;;;4.15;;
75152;SDS011;63734;45.218;36.708;2023-01-05T07:22:41;8.18;;;3.65;;
75152;SDS011;63734;45.218;36.708;2023-01-05T07:25:07;7.40;;;4.45;;
75152;SDS011;63734;45.218;36.708;2023-01-05T07:27:33;9.25;;;4.60;;
75152;SDS011;63734;45.218;36.708;2023-01-05T07:29:59;7.68;;;4.35;;
75152;SDS011;63734;45.218;36.708;2023-01-05T07:32:25;5.40;;;3.22;;
75152;SDS011;63734;45.218;36.708;2023-01-05T07:34:51;5.72;;;3.30;;
75152;SDS011;63734;45.218;36.708;2023-01-05T07:37:17;5.25;;;3.00;;
75152;SDS011;63734;45.218;36.708;2023-01-05T07:39:43;4.28;;;2.75;;
75152;SDS011;63734;45.218;36.708;2023-01-05T07:42:09;3.47;;;2.45;;
75152;SDS011;63734;45.218;36.708;2023-01-05T07:44:35;5.50;;;2.70;;
75152;SDS011;63734;45.218;36.708;2023-01-05T07:47:02;5.57;;;2.35;;
75152;SDS011;63734;45.218;36.708;2023-01-05T07:49:28;3.28;;;1.98;;
75152;SDS011;63734;45.218;36.708;2023-01-05T07:51:54;3.30;;;2.33;;
75152;SDS011;63734;45.218;36.708;2023-01-05T07:54:20;4.72;;;2.15;;
75152;SDS011;63734;45.218;36.708;2023-01-05T07:56:46;2.65;;;2.10;;
75152;SDS011;63734;45.218;36.708;2023-01-05T07:59:12;2.90;;;2.10;;
75152;SDS011;63734;45.218;36.708;2023-01-05T08:01:38;2.78;;;1.80;;
75152;SDS011;63734;45.218;36.708;2023-01-05T08:04:04;4.10;;;1.77;;
75152;SDS011;63734;45.218;36.708;2023-01-05T08:06:30;3.47;;;2.40;;
75152;SDS011;63734;45.218;36.708;2023-01-05T08:08:57;3.92;;;2.30;;
75152;SDS011;63734;45.218;36.708;2023-01-05T08:11:43;3.30;;;2.13;;
75152;SDS011;63734;45.218;36.708;2023-01-05T08:14:09;3.85;;;2.15;;
75152;SDS011;63734;45.218;36.708;2023-01-05T08:16:35;3.38;;;2.08;;
75152;SDS011;63734;45.218;36.708;2023-01-05T08:19:01;4.47;;;2.53;;
75152;SDS011;63734;45.218;36.708;2023-01-05T08:21:27;11.02;;;2.25;;
75152;SDS011;63734;45.218;36.708;2023-01-05T08:23:53;4.38;;;2.75;;
75152;SDS011;63734;45.218;36.708;2023-01-05T08:26:20;4.63;;;2.42;;
75152;SDS011;63734;45.218;36.708;2023-01-05T08:28:48;4.07;;;2.25;;
75152;SDS011;63734;45.218;36.708;2023-01-05T08:31:16;4.22;;;2.58;;
75152;SDS011;63734;45.218;36.708;2023-01-05T08:33:45;5.07;;;2.22;;
75152;SDS011;63734;45.218;36.708;2023-01-05T08:36:16;3.83;;;2.20;;
75152;SDS011;63734;45.218;36.708;2023-01-05T08:38:46;3.08;;;2.00;;
75152;SDS011;63734;45.218;36.708;2023-01-05T08:41:14;3.40;;;2.22;;
75152;SDS011;63734;45.218;36.708;2023-01-05T08:43:47;5.43;;;2.45;;
75152;SDS011;63734;45.218;36.708;2023-01-05T08:46:21;2.85;;;2.35;;
75152;SDS011;63734;45.218;36.708;2023-01-05T08:48:49;3.35;;;2.45;;
75152;SDS011;63734;45.218;36.708;2023-01-05T08:51:16;6.45;;;2.33;;
75152;SDS011;63734;45.218;36.708;2023-01-05T08:53:43;4.53;;;2.35;;
75152;SDS011;63734;45.218;36.708;2023-01-05T08:56:09;3.22;;;2.08;;
75152;SDS011;63734;45.218;36.708;2023-01-05T08:58:38;4.13;;;2.50;;
75152;SDS011;63734;45.218;36.708;2023-01-05T09:01:06;5.97;;;3.15;;
75152;SDS011;63734;45.218;36.708;2023-01-05T09:03:35;8.05;;;3.03;;
75152;SDS011;63734;45.218;36.708;2023-01-05T09:06:02;4.78;;;2.72;;
75152;SDS011;63734;45.218;36.708;2023-01-05T09:08:30;4.45;;;2.70;;
75152;SDS011;63734;45.218;36.708;2023-01-05T09:11:05;5.13;;;2.95;;
75152;SDS011;63734;45.218;36.708;2023-01-05T09:13:31;2.77;;;2.20;;
75152;SDS011;63734;45.218;36.708;2023-01-05T09:16:02;3.60;;;2.28;;
75152;SDS011;63734;45.218;36.708;2023-01-05T09:18:29;4.07;;;2.75;;
75152;SDS011;63734;45.218;36.708;2023-01-05T09:20:55;5.78;;;3.10;;
75152;SDS011;63734;45.218;36.708;2023-01-05T09:23:21;4.22;;;2.53;;
75152;SDS011;63734;45.218;36.708;2023-01-05T09:25:47;5.03;;;2.55;;
75152;SDS011;63734;45.218;36.708;2023-01-05T09:28:12;3.53;;;2.05;;
75152;SDS011;63734;45.218;36.708;2023-01-05T09:30:38;8.88;;;3.28;;
75152;SDS011;63734;45.218;36.708;2023-01-05T09:33:04;5.10;;;2.90;;
75152;SDS011;63734;45.218;36.708;2023-01-05T09:35:30;5.78;;;3.22;;
75152;SDS011;63734;45.218;36.708;2023-01-05T09:37:56;6.18;;;2.90;;
75152;SDS011;63734;45.218;36.708;2023-01-05T09:40:22;5.35;;;2.03;;
75152;SDS011;63734;45.218;36.708;2023-01-05T09:42:49;5.80;;;2.88;;
75152;SDS011;63734;45.218;36.708;2023-01-05T09:45:20;5.45;;;2.90;;
75152;SDS011;63734;45.218;36.708;2023-01-05T09:50:20;6.88;;;2.90;;
75152;SDS011;63734;45.218;36.708;2023-01-05T09:52:52;5.90;;;1.92;;
75152;SDS011;63734;45.218;36.708;2023-01-05T09:55:24;3.42;;;2.15;;
75152;SDS011;63734;45.218;36.708;2023-01-05T09:57:59;3.00;;;2.22;;
75152;SDS011;63734;45.218;36.708;2023-01-05T10:00:30;4.07;;;1.98;;
75152;SDS011;63734;45.218;36.708;2023-01-05T10:03:02;4.55;;;2.33;;
75152;SDS011;63734;45.218;36.708;2023-01-05T10:05:36;6.18;;;3.00;;
75152;SDS011;63734;45.218;36.708;2023-01-05T10:08:07;7.93;;;2.85;;
75152;SDS011;63734;45.218;36.708;2023-01-05T10:10:56;5.45;;;2.75;;
75152;SDS011;63734;45.218;36.708;2023-01-05T10:14:05;6.95;;;2.83;;
75152;SDS011;63734;45.218;36.708;2023-01-05T10:16:37;13.32;;;3.50;;
75152;SDS011;63734;45.218;36.708;2023-01-05T10:19:07;3.25;;;2.40;;
75152;SDS011;63734;45.218;36.708;2023-01-05T10:21:51;5.32;;;2.63;;
75152;SDS011;63734;45.218;36.708;2023-01-05T10:26:54;4.60;;;2.70;;
75152;SDS011;63734;45.218;36.708;2023-01-05T10:29:48;5.30;;;2.72;;
75152;SDS011;63734;45.218;36.708;2023-01-05T10:38:14;4.88;;;2.75;;
75152;SDS011;63734;45.218;36.708;2023-01-05T10:44:28;8.68;;;2.70;;
75152;SDS011;63734;45.218;36.708;2023-01-05T10:47:01;4.38;;;2.30;;
75152;SDS011;63734;45.218;36.708;2023-01-05T10:49:29;4.60;;;2.15;;
75152;SDS011;63734;45.218;36.708;2023-01-05T10:51:57;2.22;;;1.95;;
75152;SDS011;63734;45.218;36.708;2023-01-05T11:02:29;3.88;;;2.30;;
75152;SDS011;63734;45.218;36.708;2023-01-05T11:05:45;5.75;;;2.72;;
75152;SDS011;63734;45.218;36.708;2023-01-05T11:07:49;7.03;;;3.13;;
75152;SDS011;63734;45.218;36.708;2023-01-05T11:10:28;5.43;;;2.67;;
75152;SDS011;63734;45.218;36.708;2023-01-05T11:13:05;2.95;;;1.98;;
75152;SDS011;63734;45.218;36.708;2023-01-05T11:15:44;3.80;;;2.25;;
75152;SDS011;63734;45.218;36.708;2023-01-05T11:18:26;16.60;;;2.80;;
75152;SDS011;63734;45.218;36.708;2023-01-05T11:23:54;2.47;;;1.90;;
75152;SDS011;63734;45.218;36.708;2023-01-05T11:26:25;4.22;;;3.00;;
75152;SDS011;63734;45.218;36.708;2023-01-05T11:29:04;7.78;;;3.03;;
75152;SDS011;63734;45.218;36.708;2023-01-05T11:31:40;4.93;;;3.00;;
75152;SDS011;63734;45.218;36.708;2023-01-05T11:36:55;7.47;;;2.67;;
75152;SDS011;63734;45.218;36.708;2023-01-05T11:39:28;5.47;;;2.95;;
75152;SDS011;63734;45.218;36.708;2023-01-05T11:44:50;6.78;;;2.90;;
75152;SDS011;63734;45.218;36.708;2023-01-05T11:47:31;7.05;;;3.13;;
75152;SDS011;63734;45.218;36.708;2023-01-05T11:52:40;5.72;;;3.00;;
75152;SDS011;63734;45.218;36.708;2023-01-05T11:57:48;7.32;;;4.10;;
75152;SDS011;63734;45.218;36.708;2023-01-05T12:05:43;9.35;;;3.97;;
75152;SDS011;63734;45.218;36.708;2023-01-05T12:08:20;7.00;;;3.05;;
75152;SDS011;63734;45.218;36.708;2023-01-05T12:11:26;5.85;;;2.63;;
75152;SDS011;63734;45.218;36.708;2023-01-05T12:27:49;4.13;;;1.65;;
75152;SDS011;63734;45.218;36.708;2023-01-05T12:41:47;4.22;;;1.65;;
75152;SDS011;63734;45.218;36.708;2023-01-05T12:49:43;5.43;;;1.88;;
75152;SDS011;63734;45.218;36.708;2023-01-05T12:55:15;2.33;;;1.52;;
75152;SDS011;63734;45.218;36.708;2023-01-05T12:57:59;2.90;;;1.02;;
75152;SDS011;63734;45.218;36.708;2023-01-05T13:00:30;3.50;;;1.63;;
75152;SDS011;63734;45.218;36.708;2023-01-05T13:03:00;1.98;;;1.30;;
75152;SDS011;63734;45.218;36.708;2023-01-05T13:07:54;6.95;;;2.30;;
75152;SDS011;63734;45.218;36.708;2023-01-05T13:13:10;3.65;;;1.50;;
75152;SDS011;63734;45.218;36.708;2023-01-05T13:15:41;2.63;;;1.10;;
75152;SDS011;63734;45.218;36.708;2023-01-05T13:18:17;7.20;;;1.50;;
75152;SDS011;63734;45.218;36.708;2023-01-05T13:20:47;5.25;;;1.95;;
75152;SDS011;63734;45.218;36.708;2023-01-05T13:23:19;1.75;;;1.45;;
75152;SDS011;63734;45.218;36.708;2023-01-05T13:28:24;4.00;;;1.92;;
75152;SDS011;63734;45.218;36.708;2023-01-05T13:39:40;4.65;;;1.77;;
75152;SDS011;63734;45.218;36.708;2023-01-05T13:42:38;2.90;;;1.50;;
75152;SDS011;63734;45.218;36.708;2023-01-05T13:53:42;5.65;;;1.70;;
75152;SDS011;63734;45.218;36.708;2023-01-05T13:56:14;2.58;;;1.90;;
75152;SDS011;63734;45.218;36.708;2023-01-05T14:01:13;4.38;;;1.73;;
75152;SDS011;63734;45.218;36.708;2023-01-05T14:03:58;5.05;;;2.00;;
75152;SDS011;63734;45.218;36.708;2023-01-05T14:06:26;4.72;;;2.00;;
75152;SDS011;63734;45.218;36.708;2023-01-05T14:11:39;3.13;;;2.03;;
75152;SDS011;63734;45.218;36.708;2023-01-05T14:20:41;5.00;;;2.30;;
75152;SDS011;63734;45.218;36.708;2023-01-05T14:26:06;4.18;;;1.60;;
75152;SDS011;63734;45.218;36.708;2023-01-05T14:33:49;2.75;;;1.58;;
75152;SDS011;63734;45.218;36.708;2023-01-05T14:41:45;4.00;;;1.85;;
75152;SDS011;63734;45.218;36.708;2023-01-05T14:44:43;12.02;;;2.22;;
75152;SDS011;63734;45.218;36.708;2023-01-05T14:50:26;3.78;;;2.25;;
75152;SDS011;63734;45.218;36.708;2023-01-05T14:55:35;6.13;;;2.30;;
75152;SDS011;63734;45.218;36.708;2023-01-05T15:15:00;8.35;;;2.33;;
75152;SDS011;63734;45.218;36.708;2023-01-05T15:17:34;5.43;;;2.20;;
75152;SDS011;63734;45.218;36.708;2023-01-05T15:23:03;3.63;;;2.00;;
75152;SDS011;63734;45.218;36.708;2023-01-05T15:26:01;2.90;;;1.55;;
75152;SDS011;63734;45.218;36.708;2023-01-05T15:37:32;6.43;;;1.73;;
75152;SDS011;63734;45.218;36.708;2023-01-05T15:40:04;7.45;;;2.38;;
75152;SDS011;63734;45.218;36.708;2023-01-05T15:42:43;5.40;;;2.13;;
75152;SDS011;63734;45.218;36.708;2023-01-05T15:45:22;2.60;;;1.77;;
75152;SDS011;63734;45.218;36.708;2023-01-05T15:47:52;5.07;;;2.38;;
75152;SDS011;63734;45.218;36.708;2023-01-05T15:50:22;3.47;;;1.80;;
75152;SDS011;63734;45.218;36.708;2023-01-05T15:52:55;2.38;;;1.58;;
75152;SDS011;63734;45.218;36.708;2023-01-05T15:55:23;5.95;;;2.05;;
75152;SDS011;63734;45.218;36.708;2023-01-05T15:58:00;2.72;;;1.85;;
75152;SDS011;63734;45.218;36.708;2023-01-05T16:00:30;7.38;;;2.00;;
75152;SDS011;63734;45.218;36.708;2023-01-05T16:03:01;4.70;;;2.17;;
75152;SDS011;63734;45.218;36.708;2023-01-05T16:05:43;8.40;;;1.95;;
75152;SDS011;63734;45.218;36.708;2023-01-05T16:08:12;4.47;;;2.13;;
75152;SDS011;63734;45.218;36.708;2023-01-05T16:10:42;6.65;;;2.22;;
75152;SDS011;63734;45.218;36.708;2023-01-05T16:18:39;5.03;;;1.95;;
75152;SDS011;63734;45.218;36.708;2023-01-05T16:21:23;5.15;;;2.00;;
75152;SDS011;63734;45.218;36.708;2023-01-05T16:23:51;3.45;;;1.38;;
75152;SDS011;63734;45.218;36.708;2023-01-05T16:26:20;8.82;;;2.20;;
75152;SDS011;63734;45.218;36.708;2023-01-05T16:28:48;4.05;;;1.98;;
75152;SDS011;63734;45.218;36.708;2023-01-05T16:34:04;6.82;;;2.45;;
75152;SDS011;63734;45.218;36.708;2023-01-05T16:36:39;6.82;;;2.17;;
75152;SDS011;63734;45.218;36.708;2023-01-05T16:39:12;6.35;;;2.00;;
75152;SDS011;63734;45.218;36.708;2023-01-05T16:41:48;7.00;;;2.45;;
75152;SDS011;63734;45.218;36.708;2023-01-05T16:44:37;2.22;;;1.67;;
75152;SDS011;63734;45.218;36.708;2023-01-05T16:47:04;6.07;;;2.47;;
75152;SDS011;63734;45.218;36.708;2023-01-05T16:49:36;3.55;;;2.30;;
75152;SDS011;63734;45.218;36.708;2023-01-05T16:52:07;5.83;;;2.70;;
75152;SDS011;63734;45.218;36.708;2023-01-05T16:54:44;6.55;;;2.70;;
75152;SDS011;63734;45.218;36.708;2023-01-05T17:02:50;6.47;;;2.40;;
75152;SDS011;63734;45.218;36.708;2023-01-05T17:05:19;4.93;;;2.20;;
75152;SDS011;63734;45.218;36.708;2023-01-05T17:07:57;4.25;;;2.10;;
75152;SDS011;63734;45.218;36.708;2023-01-05T17:10:28;5.97;;;2.67;;
75152;SDS011;63734;45.218;36.708;2023-01-05T17:12:59;7.70;;;3.17;;
75152;SDS011;63734;45.218;36.708;2023-01-05T17:15:36;7.03;;;2.15;;
75152;SDS011;63734;45.218;36.708;2023-01-05T17:18:12;11.45;;;2.25;;
75152;SDS011;63734;45.218;36.708;2023-01-05T17:20:41;6.88;;;3.30;;
75152;SDS011;63734;45.218;36.708;2023-01-05T17:23:12;9.75;;;2.83;;
75152;SDS011;63734;45.218;36.708;2023-01-05T17:25:44;6.05;;;2.45;;
75152;SDS011;63734;45.218;36.708;2023-01-05T17:28:11;3.90;;;2.15;;
75152;SDS011;63734;45.218;36.708;2023-01-05T17:30:36;2.60;;;2.15;;
75152;SDS011;63734;45.218;36.708;2023-01-05T17:33:03;7.47;;;3.15;;
75152;SDS011;63734;45.218;36.708;2023-01-05T17:35:30;5.25;;;2.47;;
75152;SDS011;63734;45.218;36.708;2023-01-05T17:37:56;12.13;;;3.55;;
75152;SDS011;63734;45.218;36.708;2023-01-05T17:40:23;6.57;;;3.15;;
75152;SDS011;63734;45.218;36.708;2023-01-05T17:42:50;5.85;;;2.92;;
75152;SDS011;63734;45.218;36.708;2023-01-05T17:45:18;8.07;;;4.20;;
75152;SDS011;63734;45.218;36.708;2023-01-05T17:47:47;6.60;;;3.20;;
75152;SDS011;63734;45.218;36.708;2023-01-05T17:50:17;14.13;;;3.42;;
75152;SDS011;63734;45.218;36.708;2023-01-05T17:52:58;10.38;;;3.40;;
75152;SDS011;63734;45.218;36.708;2023-01-05T17:55:26;9.18;;;3.60;;
75152;SDS011;63734;45.218;36.708;2023-01-05T17:57:54;5.60;;;2.58;;
75152;SDS011;63734;45.218;36.708;2023-01-05T18:00:22;6.88;;;3.15;;
75152;SDS011;63734;45.218;36.708;2023-01-05T18:02:51;5.15;;;3.20;;
75152;SDS011;63734;45.218;36.708;2023-01-05T18:05:20;6.93;;;4.03;;
75152;SDS011;63734;45.218;36.708;2023-01-05T18:07:47;9.68;;;4.32;;
75152;SDS011;63734;45.218;36.708;2023-01-05T18:10:15;4.57;;;2.67;;
75152;SDS011;63734;45.218;36.708;2023-01-05T18:12:43;6.72;;;3.80;;
75152;SDS011;63734;45.218;36.708;2023-01-05T18:15:11;10.05;;;2.97;;
75152;SDS011;63734;45.218;36.708;2023-01-05T18:17:39;6.18;;;2.88;;
75152;SDS011;63734;45.218;36.708;2023-01-05T18:20:06;7.90;;;3.97;;